Kings Mills, Ohio
Current Conditions -  °F | °C
As of 7:53 PM on Wednesday 22 Oct 2014 (Local Time) from KHAO Reporting Station
Overcast Overcast  
Wind Chill: 51°   Ceiling: 2700
Heat Index: 51°   Visibility: 10mi
Dew Point: 41°   Wind: 7mph
Humidity: 68%   Direction: 40°NE
Pressure: 30.28"   Gusts: NA
Location:  39.36°N, 84.25°W
Report Text: KHAO 222353Z AUTO 04006KT 10SM OVC027 11/05 A3028 RMK AO2 SLP258 T01060050 10128 20106 53001
Loading
Personal Weather Stations






























Interactive Weather Map
Tropical Storm Tracking
New forecast layout! Learn more

10-Day Weather Forecast

Advertisements
Track Severe Weather on mobile